This is the latest recevied weather packets stored in our database for station/object KE2LU. If no packets are shown the sender has not sent any weather packets the latest 10 day(s).
| Time | Temp. | Humidity | Pressure | Rain* | Wind** | Luminosity | Snow |
|---|---|---|---|---|---|---|---|
| 1777889103 | 10.56° C | 62% | 1007.4 hPa | 0 mm | - | - | - |
| 1777886403 | 11.11° C | 61% | 1007.6 hPa | 0 mm | - | - | - |
| 1777885503 | 11.11° C | 62% | 1007.5 hPa | 0 mm | - | - | - |
| 1777884603 | 10.56° C | 62% | 1007.8 hPa | 0 mm | - | - | - |
| 1777883403 | 10.56° C | 63% | 1007.8 hPa | 0 mm | - | - | - |
| 1777881903 | 10° C | 64% | 1008 hPa | 0 mm | - | - | - |
| 1777880103 | 10° C | 64% | 1008.2 hPa | 0 mm | - | - | - |
| 1777879503 | 10° C | 64% | 1008.3 hPa | 0 mm | - | - | - |
| 1777879203 | 10° C | 63% | 1008.4 hPa | 0 mm | - | - | - |
| 1777878003 | 10.56° C | 63% | 1008.5 hPa | 0 mm | - | - | - |
| 1777876503 | 10.56° C | 65% | 1008.7 hPa | 0 mm | - | - | - |
| 1777873503 | 9.44° C | 66% | 1008.8 hPa | 0 mm | - | - | - |
| 1777873203 | 9.44° C | 66% | 1008.9 hPa | 0 mm | - | - | - |
| 1777872303 | 10° C | 64% | 1009 hPa | 0 mm | - | - | - |
| 1777869903 | 11.67° C | 60% | 1009.2 hPa | 0 mm | - | - | - |
| 1777864804 | 11.11° C | 64% | 1009.2 hPa | 0 mm | - | - | - |
| 1777864203 | 11.11° C | 63% | 1009.3 hPa | 0 mm | - | - | - |
| 1777863903 | 11.67° C | 63% | 1009.4 hPa | 0 mm | - | - | - |
| 1777862704 | 11.67° C | 63% | 1009.4 hPa | 0 mm | - | - | - |
| 1777862104 | 11.11° C | 64% | 1009.5 hPa | 0 mm | - | - | - |
| 1777861803 | 11.11° C | 65% | 1009.6 hPa | 0 mm | - | - | - |
| 1777861503 | 11.11° C | 66% | 1009.6 hPa | 0 mm | - | - | - |
| 1777860903 | 10.56° C | 71% | 1009.7 hPa | 0 mm | - | - | - |
| 1777858503 | 10° C | 77% | 1009.8 hPa | 0 mm | - | - | - |
| 1777855804 | 10° C | 82% | 1010.2 hPa | 0 mm | - | - | - |
* Rain latest hour (hover to see other rain measurements)
** Current wind speed in m/s (hover to see current wind gust speed)